createdAt,value
2019-01-04T00:01:51.216Z,17.70
2019-01-04T00:04:19.851Z,16.10
2019-01-04T00:06:48.551Z,10.83
2019-01-04T00:09:17.124Z,13.40
2019-01-04T00:11:46.062Z,11.83
2019-01-04T00:14:17.415Z,18.07
2019-01-04T00:16:45.987Z,14.30
2019-01-04T00:19:15.394Z,11.60
2019-01-04T00:21:43.949Z,12.57
2019-01-04T00:24:12.696Z,15.83
2019-01-04T00:26:41.271Z,13.30
2019-01-04T00:29:10.016Z,9.40
2019-01-04T00:31:38.571Z,7.80
2019-01-04T00:34:07.327Z,13.57
2019-01-04T00:36:35.903Z,16.77
2019-01-04T00:39:07.150Z,14.30
2019-01-04T00:41:35.716Z,14.83
2019-01-04T00:44:04.476Z,14.93
2019-01-04T00:46:33.052Z,13.93
2019-01-04T00:49:01.881Z,9.30
2019-01-04T00:51:30.462Z,13.03
2019-01-04T00:53:59.254Z,15.23
2019-01-04T00:56:53.878Z,18.53
2019-01-04T00:59:34.460Z,14.73
2019-01-04T01:02:21.116Z,12.77
2019-01-04T01:05:18.779Z,13.47
2019-01-04T01:08:06.822Z,14.60
2019-01-04T01:10:59.344Z,9.50
2019-01-04T01:14:04.153Z,18.23
2019-01-04T01:16:47.831Z,14.87
2019-01-04T01:19:43.864Z,15.20
2019-01-04T01:22:21.359Z,15.53
2019-01-04T01:25:10.506Z,12.43
2019-01-04T01:28:17.328Z,19.20
2019-01-04T01:31:11.537Z,10.90
2019-01-04T01:33:43.298Z,16.70
2019-01-04T01:36:42.025Z,16.90
2019-01-04T01:39:22.690Z,16.17
2019-01-04T01:42:05.584Z,11.63
2019-01-04T01:45:05.943Z,15.43
2019-01-04T01:47:36.852Z,16.67
2019-01-04T01:50:08.638Z,12.13
2019-01-04T01:52:39.680Z,14.17
2019-01-04T01:55:08.316Z,16.20
2019-01-04T01:57:37.976Z,21.13
2019-01-04T02:00:07.212Z,15.67
2019-01-04T02:02:35.786Z,20.00
2019-01-04T02:05:05.615Z,26.73
2019-01-04T02:07:34.174Z,21.83
2019-01-04T02:10:03.248Z,17.03
2019-01-04T02:12:31.892Z,17.47
2019-01-04T02:15:01.032Z,12.80
2019-01-04T02:17:29.586Z,15.70
2019-01-04T02:19:58.166Z,14.23
2019-01-04T02:22:27.095Z,14.70
2019-01-04T02:24:55.638Z,21.13
2019-01-04T02:27:24.439Z,17.70
2019-01-04T02:29:53.005Z,18.13
2019-01-04T02:32:22.240Z,16.90
2019-01-04T02:34:50.799Z,23.90
2019-01-04T02:37:19.608Z,24.47
2019-01-04T02:39:48.187Z,15.10
2019-01-04T02:42:16.981Z,12.80
2019-01-04T02:44:45.546Z,20.60
2019-01-04T02:47:14.218Z,14.27
2019-01-04T02:49:42.780Z,20.57
2019-01-04T02:52:11.735Z,29.33
2019-01-04T02:54:40.296Z,13.73
2019-01-04T02:57:09.340Z,18.17
2019-01-04T02:59:37.908Z,13.40
2019-01-04T03:02:08.237Z,24.60
2019-01-04T03:04:36.774Z,27.40
2019-01-04T03:07:05.883Z,15.47
2019-01-04T03:09:34.450Z,19.53
2019-01-04T03:12:03.126Z,20.43
2019-01-04T03:14:31.692Z,20.93
2019-01-04T03:17:00.367Z,17.93
2019-01-04T03:19:28.928Z,17.33
2019-01-04T03:21:57.763Z,20.87
2019-01-04T03:24:26.349Z,17.27
2019-01-04T03:26:55.014Z,24.03
2019-01-04T03:29:23.587Z,18.10
2019-01-04T03:31:52.287Z,29.83
2019-01-04T03:34:20.837Z,36.70
2019-01-04T03:36:49.540Z,20.70
2019-01-04T03:39:18.106Z,24.90
2019-01-04T03:41:46.667Z,22.30
2019-01-04T03:44:15.704Z,22.53
2019-01-04T03:46:44.338Z,24.60
2019-01-04T03:49:13.028Z,29.63
2019-01-04T03:51:41.773Z,29.13
2019-01-04T03:54:10.334Z,26.17
2019-01-04T03:56:39.566Z,24.10
2019-01-04T03:59:08.703Z,26.83
2019-01-04T04:01:37.275Z,23.17
2019-01-04T04:04:05.956Z,33.90
2019-01-04T04:06:34.526Z,28.77
2019-01-04T04:09:04.872Z,23.43
2019-01-04T04:11:33.436Z,30.63
2019-01-04T04:14:02.245Z,20.40
2019-01-04T04:16:30.898Z,27.70
2019-01-04T04:18:59.821Z,25.17
2019-01-04T04:21:28.386Z,35.80
2019-01-04T04:23:58.622Z,29.30
2019-01-04T04:26:27.180Z,34.20
2019-01-04T04:28:56.198Z,27.27
2019-01-04T04:31:24.758Z,37.13
2019-01-04T04:33:53.468Z,34.93
2019-01-04T04:36:22.025Z,32.40
2019-01-04T04:38:50.946Z,29.17
2019-01-04T04:41:19.533Z,40.23
2019-01-04T04:43:48.222Z,38.00
2019-01-04T04:46:16.789Z,38.83
2019-01-04T04:48:45.466Z,34.93
2019-01-04T04:51:14.038Z,34.93
2019-01-04T04:53:42.725Z,32.80
2019-01-04T04:56:11.295Z,40.23
2019-01-04T04:58:40.627Z,35.43
2019-01-04T05:01:09.188Z,45.87
2019-01-04T05:03:37.861Z,36.27
2019-01-04T05:06:06.424Z,42.07
2019-01-04T05:08:35.136Z,42.13
2019-01-04T05:11:03.694Z,46.77
2019-01-04T05:13:32.388Z,41.70
2019-01-04T05:16:01.451Z,46.13
2019-01-04T05:18:30.019Z,43.13
2019-01-04T05:20:58.804Z,43.63
2019-01-04T05:23:27.478Z,47.57
2019-01-04T05:25:56.055Z,53.40
2019-01-04T05:28:24.627Z,43.83
2019-01-04T05:30:56.625Z,45.63
2019-01-04T05:33:25.194Z,44.00
2019-01-04T05:35:53.907Z,39.00
2019-01-04T05:38:22.462Z,47.70
2019-01-04T05:40:51.139Z,52.23
2019-01-04T05:43:19.716Z,44.03
2019-01-04T05:45:48.405Z,52.87
2019-01-04T05:48:16.968Z,44.33
2019-01-04T05:50:46.102Z,38.27
2019-01-04T05:53:14.666Z,34.53
2019-01-04T05:55:43.361Z,34.40
2019-01-04T05:58:12.340Z,36.00
2019-01-04T06:00:41.028Z,34.07
2019-01-04T06:03:09.591Z,37.87
2019-01-04T06:05:38.528Z,32.03
2019-01-04T06:08:07.094Z,34.17
2019-01-04T06:10:35.766Z,33.47
2019-01-04T06:13:04.327Z,38.20
2019-01-04T06:15:33.269Z,43.60
2019-01-04T06:18:01.834Z,33.80
2019-01-04T06:20:30.482Z,35.73
2019-01-04T06:22:59.516Z,40.40
2019-01-04T06:25:28.086Z,46.43
2019-01-04T06:27:56.761Z,44.90
2019-01-04T06:30:25.326Z,46.47
2019-01-04T06:32:54.036Z,44.80
2019-01-04T06:35:22.617Z,38.73
2019-01-04T06:37:51.296Z,39.67
2019-01-04T06:40:19.868Z,40.10
2019-01-04T06:42:48.820Z,41.57
2019-01-04T06:45:17.456Z,44.10
2019-01-04T06:47:46.156Z,51.47
2019-01-04T06:50:14.718Z,51.60
2019-01-04T06:52:43.402Z,45.87
2019-01-04T06:55:21.146Z,46.20
2019-01-04T06:57:50.731Z,41.23
2019-01-04T07:00:19.298Z,44.03
2019-01-04T07:02:47.990Z,49.00
2019-01-04T07:05:16.543Z,45.83
2019-01-04T07:07:45.112Z,45.00
2019-01-04T07:10:13.980Z,49.90
2019-01-04T07:12:42.555Z,22.57
2019-01-04T07:15:11.763Z,43.40
2019-01-04T07:17:40.324Z,49.13
2019-01-04T07:20:09.378Z,41.53
2019-01-04T07:22:38.224Z,43.53
2019-01-04T07:25:07.128Z,38.20
2019-01-04T07:27:36.018Z,47.37
2019-01-04T07:30:06.752Z,56.07
2019-01-04T07:32:35.442Z,45.97
2019-01-04T07:35:05.354Z,43.27
2019-01-04T07:37:33.967Z,40.90
2019-01-04T07:40:02.933Z,17.47
2019-01-04T07:42:31.485Z,41.50
2019-01-04T07:45:00.339Z,38.97
2019-01-04T07:47:28.890Z,38.53
2019-01-04T07:49:57.663Z,44.07
2019-01-04T07:52:26.225Z,41.90
2019-01-04T07:54:55.246Z,48.53
2019-01-04T07:57:24.330Z,35.33
2019-01-04T07:59:53.036Z,27.40
2019-01-04T08:02:39.728Z,39.50
2019-01-04T08:05:14.059Z,36.87
2019-01-04T08:07:42.754Z,25.00
2019-01-04T08:10:11.554Z,28.73
2019-01-04T08:13:00.025Z,24.87
2019-01-04T08:15:28.596Z,25.40
2019-01-04T08:17:57.304Z,24.80
2019-01-04T08:20:25.880Z,37.37
2019-01-04T08:22:54.584Z,27.83
2019-01-04T08:25:23.146Z,27.30
2019-01-04T08:27:51.989Z,27.20
2019-01-04T08:30:20.948Z,34.23
2019-01-04T08:32:50.024Z,34.03
2019-01-04T08:35:18.612Z,35.53
2019-01-04T08:37:47.557Z,31.83
2019-01-04T08:40:16.113Z,22.40
2019-01-04T08:42:44.676Z,27.87
2019-01-04T08:45:13.430Z,28.87
2019-01-04T08:47:42.125Z,29.63
2019-01-04T08:50:11.598Z,28.43
2019-01-04T08:52:40.229Z,29.83
2019-01-04T08:55:09.879Z,26.57
2019-01-04T08:57:38.689Z,29.50
2019-01-04T09:00:12.809Z,27.20
2019-01-04T09:02:41.477Z,30.00
2019-01-04T09:05:10.609Z,23.53
2019-01-04T09:07:41.894Z,20.93
2019-01-04T09:10:11.395Z,27.20
2019-01-04T09:12:40.037Z,25.90
2019-01-04T09:15:09.294Z,18.23
2019-01-04T09:17:37.846Z,24.87
2019-01-04T09:20:09.426Z,24.77
2019-01-04T09:22:38.066Z,20.77
2019-01-04T09:25:08.092Z,31.97
2019-01-04T09:27:36.652Z,27.37
2019-01-04T09:30:08.083Z,28.47
2019-01-04T09:32:37.121Z,25.80
2019-01-04T09:35:08.237Z,19.90
2019-01-04T09:37:36.809Z,18.10
2019-01-04T09:40:08.244Z,20.80
2019-01-04T09:42:37.075Z,31.73
2019-01-04T09:45:07.878Z,24.73
2019-01-04T09:47:36.757Z,20.40
2019-01-04T09:50:07.291Z,19.00
2019-01-04T09:52:36.649Z,15.10
2019-01-04T09:55:06.344Z,17.03
2019-01-04T09:57:37.131Z,16.83
2019-01-04T10:00:08.831Z,23.00
2019-01-04T10:02:37.547Z,18.83
2019-01-04T10:05:08.104Z,13.80
2019-01-04T10:07:37.000Z,18.57
2019-01-04T10:10:08.097Z,16.10
2019-01-04T10:12:38.359Z,21.83
2019-01-04T10:15:12.844Z,18.20
2019-01-04T10:17:42.003Z,19.43
2019-01-04T10:20:11.429Z,21.47
2019-01-04T10:22:40.589Z,14.83
2019-01-04T10:25:09.489Z,21.73
2019-01-04T10:27:38.365Z,17.60
2019-01-04T10:30:07.664Z,14.80
2019-01-04T10:32:36.701Z,17.97
2019-01-04T10:35:10.497Z,17.00
2019-01-04T10:37:35.746Z,13.50
2019-01-04T10:40:10.874Z,14.73
2019-01-04T10:42:35.291Z,9.90
2019-01-04T10:45:05.918Z,22.43
2019-01-04T10:47:34.483Z,17.93
2019-01-04T10:50:03.208Z,10.87
2019-01-04T10:52:31.765Z,19.57
2019-01-04T10:55:00.712Z,22.50
2019-01-04T10:57:29.712Z,12.97
2019-01-04T10:59:58.279Z,13.90
2019-01-04T11:02:27.031Z,15.23
2019-01-04T11:04:55.715Z,14.37
2019-01-04T11:07:24.281Z,9.13
2019-01-04T11:09:53.188Z,16.73
2019-01-04T11:12:21.876Z,18.07
2019-01-04T11:14:50.432Z,17.87
2019-01-04T11:17:19.441Z,11.30
2019-01-04T11:19:48.013Z,16.90
2019-01-04T11:22:53.618Z,16.10
2019-01-04T11:25:45.570Z,14.63
2019-01-04T11:28:18.361Z,10.53
2019-01-04T11:30:50.128Z,14.67
2019-01-04T11:33:18.956Z,13.20
2019-01-04T11:35:53.272Z,7.70
2019-01-04T11:38:36.978Z,16.73
2019-01-04T11:41:11.188Z,18.53
2019-01-04T11:43:57.740Z,14.90
2019-01-04T11:46:47.461Z,13.63
2019-01-04T11:49:25.796Z,24.73
2019-01-04T11:52:00.088Z,11.83
2019-01-04T11:54:28.891Z,17.23
2019-01-04T11:56:57.452Z,14.87
2019-01-04T11:59:27.674Z,10.87
2019-01-04T12:01:56.311Z,16.50
2019-01-04T12:04:25.298Z,13.70
2019-01-04T12:06:53.861Z,19.73
2019-01-04T12:09:22.687Z,22.30
2019-01-04T12:11:52.343Z,21.60
2019-01-04T12:14:21.477Z,17.57
2019-01-04T12:16:50.027Z,15.23
2019-01-04T12:19:18.715Z,20.50
2019-01-04T12:21:47.284Z,15.37
2019-01-04T12:24:16.431Z,19.00
2019-01-04T12:26:45.008Z,16.73
2019-01-04T12:29:13.694Z,21.40
2019-01-04T12:31:45.093Z,17.90
2019-01-04T12:34:16.666Z,29.30
2019-01-04T12:36:44.357Z,19.97
2019-01-04T12:39:13.021Z,16.13
2019-01-04T12:41:41.664Z,18.33
2019-01-04T12:44:10.411Z,13.40
2019-01-04T12:46:39.223Z,15.83
2019-01-04T12:49:07.971Z,14.43
2019-01-04T12:51:36.530Z,19.63
2019-01-04T12:54:05.251Z,14.03
2019-01-04T12:56:33.820Z,15.20
2019-01-04T12:59:02.739Z,11.37
2019-01-04T13:01:31.309Z,14.17
2019-01-04T13:04:01.538Z,18.40
2019-01-04T13:06:30.098Z,17.50
2019-01-04T13:08:58.919Z,19.53
2019-01-04T13:11:27.477Z,14.33
2019-01-04T13:13:56.179Z,12.07
2019-01-04T13:16:24.745Z,15.83
2019-01-04T13:18:53.658Z,14.17
2019-01-04T13:21:22.691Z,9.57
2019-01-04T13:23:51.416Z,16.60
2019-01-04T13:26:19.965Z,16.37
2019-01-04T13:28:49.024Z,10.13
2019-01-04T13:31:18.104Z,8.47
2019-01-04T13:33:46.664Z,16.10
2019-01-04T13:36:15.977Z,22.93
2019-01-04T13:38:44.611Z,17.07
2019-01-04T13:41:13.355Z,13.07
2019-01-04T13:43:41.934Z,11.07
2019-01-04T13:46:10.615Z,14.57
2019-01-04T13:48:39.175Z,18.37
2019-01-04T13:51:08.221Z,16.83
2019-01-04T13:53:36.776Z,12.87
2019-01-04T13:56:05.589Z,13.70
2019-01-04T13:58:34.722Z,12.60
2019-01-04T14:01:03.476Z,12.20
2019-01-04T14:03:32.051Z,18.43
2019-01-04T14:06:01.181Z,13.90
2019-01-04T14:08:30.926Z,14.43
2019-01-04T14:10:59.704Z,10.00
2019-01-04T14:13:28.281Z,12.17
2019-01-04T14:15:57.039Z,9.57
2019-01-04T14:18:25.596Z,7.83
2019-01-04T14:20:54.484Z,9.93
2019-01-04T14:23:28.670Z,14.37
2019-01-04T14:25:55.549Z,5.30
2019-01-04T14:28:24.445Z,10.77
2019-01-04T14:30:53.177Z,14.00
2019-01-04T14:33:21.810Z,8.53
2019-01-04T14:35:50.938Z,7.63
2019-01-04T14:38:19.514Z,10.27
2019-01-04T14:40:48.276Z,9.43
2019-01-04T14:43:16.857Z,11.97
2019-01-04T14:45:45.588Z,12.50
2019-01-04T14:48:14.141Z,14.07
2019-01-04T14:50:43.108Z,6.23
2019-01-04T14:53:11.963Z,11.20
2019-01-04T14:55:41.121Z,14.33
2019-01-04T14:58:09.925Z,17.50
2019-01-04T15:00:38.995Z,14.63
2019-01-04T15:03:07.685Z,18.83
2019-01-04T15:05:36.257Z,14.97
2019-01-04T15:08:05.261Z,14.37
2019-01-04T15:10:33.955Z,9.97
2019-01-04T15:13:02.539Z,18.90
2019-01-04T15:15:31.331Z,9.13
2019-01-04T15:18:00.027Z,19.57
2019-01-04T15:20:29.295Z,16.77
2019-01-04T15:22:57.987Z,10.00
2019-01-04T15:25:26.559Z,11.90
2019-01-04T15:27:55.357Z,16.00
2019-01-04T15:30:23.928Z,21.70
2019-01-04T15:32:53.169Z,12.20
2019-01-04T15:35:21.947Z,13.87
2019-01-04T15:37:50.917Z,13.30
2019-01-04T15:40:19.484Z,12.27
2019-01-04T15:42:48.291Z,12.97
2019-01-04T15:45:16.935Z,11.37
2019-01-04T15:47:45.670Z,11.57
2019-01-04T15:50:14.551Z,11.87
2019-01-04T15:52:43.121Z,8.53
2019-01-04T15:55:11.915Z,14.03
2019-01-04T15:57:40.469Z,17.10
2019-01-04T16:00:12.335Z,7.80
2019-01-04T16:02:40.904Z,9.33
2019-01-04T16:05:10.762Z,12.90
2019-01-04T16:07:39.445Z,6.60
2019-01-04T16:10:09.348Z,8.47
2019-01-04T16:12:38.476Z,12.70
2019-01-04T16:15:09.782Z,10.83
2019-01-04T16:17:38.498Z,11.40
2019-01-04T16:20:11.464Z,14.57
2019-01-04T16:22:40.381Z,9.80
2019-01-04T16:25:09.392Z,6.20
2019-01-04T16:27:38.092Z,8.20
2019-01-04T16:30:09.876Z,9.00
2019-01-04T16:32:38.998Z,6.80
2019-01-04T16:35:08.097Z,9.27
2019-01-04T16:37:36.999Z,5.33
2019-01-04T16:40:07.917Z,6.63
2019-01-04T16:42:37.027Z,7.37
2019-01-04T16:45:06.721Z,6.80
2019-01-04T16:47:35.433Z,5.23
2019-01-04T16:50:07.354Z,3.97
2019-01-04T16:52:36.070Z,5.13
2019-01-04T16:55:05.971Z,5.40
2019-01-04T16:57:35.492Z,6.70
2019-01-04T17:00:06.368Z,5.70
2019-01-04T17:02:35.092Z,5.10
2019-01-04T17:05:03.824Z,6.47
2019-01-04T17:07:32.704Z,5.53
2019-01-04T17:10:01.253Z,4.13
2019-01-04T17:12:30.277Z,7.00
2019-01-04T17:14:58.838Z,6.30
2019-01-04T17:17:27.516Z,6.90
2019-01-04T17:19:56.100Z,4.90
2019-01-04T17:22:24.840Z,9.03
2019-01-04T17:24:53.468Z,4.63
2019-01-04T17:27:22.506Z,4.53
2019-01-04T17:29:51.064Z,3.90
2019-01-04T17:32:20.357Z,4.60
2019-01-04T17:34:48.916Z,4.03
2019-01-04T17:37:17.600Z,6.20
2019-01-04T17:39:46.157Z,5.40
2019-01-04T17:42:14.846Z,15.37
2019-01-04T17:44:43.415Z,4.77
2019-01-04T17:47:12.480Z,3.90
2019-01-04T17:49:41.062Z,4.83
2019-01-04T17:52:09.751Z,5.07
2019-01-04T17:54:41.044Z,4.60
2019-01-04T17:57:09.725Z,10.53
2019-01-04T17:59:38.957Z,8.37
2019-01-04T18:02:07.703Z,5.50
2019-01-04T18:04:36.265Z,7.20
2019-01-04T18:07:05.262Z,10.20
2019-01-04T18:09:34.348Z,4.23
2019-01-04T18:12:03.000Z,7.03
2019-01-04T18:14:31.916Z,4.67
2019-01-04T18:17:00.474Z,6.20
2019-01-04T18:19:29.491Z,4.77
2019-01-04T18:21:58.123Z,5.23
2019-01-04T18:24:27.073Z,6.80
2019-01-04T18:26:55.628Z,4.70
2019-01-04T18:29:24.845Z,5.60
2019-01-04T18:31:53.402Z,7.23
2019-01-04T18:34:22.517Z,5.73
2019-01-04T18:36:51.080Z,4.60
2019-01-04T18:39:20.006Z,4.87
2019-01-04T18:41:48.573Z,4.93
2019-01-04T18:44:17.573Z,3.97
2019-01-04T18:46:46.147Z,3.37
2019-01-04T18:49:14.971Z,7.27
2019-01-04T18:51:43.540Z,6.60
2019-01-04T18:54:12.328Z,6.60
2019-01-04T18:56:40.946Z,6.73
2019-01-04T18:59:10.587Z,6.80
2019-01-04T19:01:39.137Z,6.17
2019-01-04T19:04:07.830Z,4.90
2019-01-04T19:06:37.025Z,6.23
2019-01-04T19:09:07.578Z,2.67
2019-01-04T19:11:36.072Z,7.00
2019-01-04T19:14:05.290Z,7.47
2019-01-04T19:16:33.862Z,8.07
2019-01-04T19:19:02.660Z,6.73
2019-01-04T19:21:32.328Z,8.93
2019-01-04T19:24:00.874Z,9.57
2019-01-04T19:26:29.584Z,6.17
2019-01-04T19:28:58.207Z,8.80
2019-01-04T19:31:27.002Z,10.87
2019-01-04T19:33:55.637Z,9.80
2019-01-04T19:36:24.490Z,8.30
2019-01-04T19:38:53.274Z,11.90
2019-01-04T19:41:21.835Z,6.70
2019-01-04T19:43:50.916Z,9.07
2019-01-04T19:46:19.486Z,15.10
2019-01-04T19:48:48.206Z,11.60
2019-01-04T19:51:19.299Z,11.33
2019-01-04T19:53:48.155Z,13.93
2019-01-04T19:56:16.730Z,12.60
2019-01-04T19:58:45.550Z,20.13
2019-01-04T20:01:14.441Z,14.40
2019-01-04T20:03:43.016Z,19.33
2019-01-04T20:06:26.377Z,17.60
2019-01-04T20:09:48.460Z,16.07
2019-01-04T20:13:13.190Z,20.60
2019-01-04T20:16:02.039Z,19.70
2019-01-04T20:18:48.891Z,18.43
2019-01-04T20:21:35.306Z,20.30
2019-01-04T20:24:08.951Z,22.20
2019-01-04T20:26:54.533Z,16.40
2019-01-04T20:29:41.027Z,23.07
2019-01-04T20:32:11.362Z,17.30
2019-01-04T20:34:41.577Z,19.27
2019-01-04T20:37:23.640Z,17.73
2019-01-04T20:40:10.056Z,15.47
2019-01-04T20:42:53.206Z,18.97
2019-01-04T20:45:35.406Z,19.20
2019-01-04T20:48:08.794Z,22.23
2019-01-04T20:50:45.132Z,19.10
2019-01-04T20:53:31.778Z,19.93
2019-01-04T20:56:20.308Z,9.67
2019-01-04T20:59:07.031Z,21.60
2019-01-04T21:01:49.492Z,14.80
2019-01-04T21:04:28.768Z,16.63
2019-01-04T21:07:15.180Z,17.93
2019-01-04T21:09:45.611Z,15.30
2019-01-04T21:12:21.972Z,20.47
2019-01-04T21:14:53.690Z,24.93
2019-01-04T21:17:26.615Z,18.97
2019-01-04T21:20:12.299Z,22.60
2019-01-04T21:22:51.070Z,24.83
2019-01-04T21:25:33.446Z,21.50
2019-01-04T21:28:06.634Z,15.53
2019-01-04T21:30:37.142Z,21.57
2019-01-04T21:33:07.697Z,25.30
2019-01-04T21:35:46.810Z,14.57
2019-01-04T21:38:26.021Z,18.50
2019-01-04T21:41:02.399Z,18.03
2019-01-04T21:43:32.823Z,19.70
2019-01-04T21:46:04.257Z,22.90
2019-01-04T21:48:50.666Z,24.70
2019-01-04T21:51:21.021Z,23.53
2019-01-04T21:54:09.562Z,23.97
2019-01-04T21:56:48.740Z,19.47
2019-01-04T21:59:21.523Z,22.37
2019-01-04T22:01:58.032Z,22.90
2019-01-04T22:04:44.689Z,106.97
2019-01-04T22:07:26.994Z,31.23
2019-01-04T22:10:09.456Z,23.33
2019-01-04T22:12:42.636Z,19.27
2019-01-04T22:15:22.011Z,27.83
2019-01-04T22:17:52.614Z,21.83
2019-01-04T22:20:22.832Z,20.77
2019-01-04T22:22:59.234Z,20.10
2019-01-04T22:25:40.921Z,21.97
2019-01-04T22:28:20.177Z,22.03
2019-01-04T22:30:56.560Z,23.93
2019-01-04T22:33:43.907Z,20.07
2019-01-04T22:36:20.177Z,22.63
2019-01-04T22:39:06.510Z,19.90
2019-01-04T22:41:45.617Z,22.33
2019-01-04T22:44:32.018Z,15.67
2019-01-04T22:47:18.448Z,21.23
2019-01-04T22:49:57.829Z,21.00
2019-01-04T22:52:46.293Z,20.60
2019-01-04T22:55:25.467Z,24.93
2019-01-04T22:58:04.522Z,15.57
2019-01-04T23:00:48.816Z,6.80
2019-01-04T23:03:28.151Z,18.13
2019-01-04T23:05:58.358Z,15.13
2019-01-04T23:08:32.067Z,22.20
2019-01-04T23:11:13.859Z,15.87
2019-01-04T23:13:44.213Z,15.10
2019-01-04T23:16:23.241Z,17.50
2019-01-04T23:18:59.360Z,13.53
2019-01-04T23:22:01.231Z,13.00
2019-01-04T23:24:48.572Z,14.90
2019-01-04T23:27:24.290Z,11.67
2019-01-04T23:29:54.762Z,12.20
2019-01-04T23:32:38.210Z,10.97
2019-01-04T23:35:20.787Z,12.70
2019-01-04T23:38:08.876Z,11.57
2019-01-04T23:40:56.252Z,14.40
2019-01-04T23:43:44.297Z,6.83
2019-01-04T23:46:14.698Z,6.97
2019-01-04T23:48:45.441Z,17.20
2019-01-04T23:51:18.563Z,9.77
2019-01-04T23:53:54.584Z,9.30
2019-01-04T23:56:27.920Z,9.93
2019-01-04T23:58:58.145Z,12.23
